Time;durP1;ratioP1;P1;durP2;ratioP2;P2;SDS_P1;SDS_P2;PMS_P1;PMS_P2;Temp;Humidity;BMP_temperature;BMP_pressure;BME280_temperature;BME280_humidity;BME280_pressure;Samples;Min_cycle;Max_cycle;Signal;HPM_P1;HPM_P2
2021/12/27 00:02:15;;;;;;;3.17;2.47;;;;;;;5.92;54.73;101973.59;1753288;81;21001;-54
2021/12/27 00:04:43;;;;;;;4.70;2.37;;;;;;;5.92;54.67;101982.63;1749204;81;21022;-54
2021/12/27 00:07:12;;;;;;;6.50;4.03;;;;;;;5.93;54.38;101985.67;1738765;81;21568;-54
2021/12/27 00:09:39;;;;;;;6.97;3.77;;;;;;;5.93;54.21;101988.27;1752814;81;21545;-54
2021/12/27 00:12:07;;;;;;;9.45;3.80;;;;;;;5.93;54.12;101989.55;1766117;80;21006;-53
2021/12/27 00:14:34;;;;;;;4.67;2.95;;;;;;;5.92;54.15;101978.75;1755954;80;21030;-53
2021/12/27 00:17:00;;;;;;;6.20;4.10;;;;;;;5.93;54.01;101988.27;1771328;80;21034;-54
2021/12/27 00:19:28;;;;;;;5.25;3.58;;;;;;;5.91;53.78;101986.48;1777433;80;21046;-53
2021/12/27 00:41:05;;;;;;;14.65;3.95;;;;;;;5.91;52.73;101978.73;1770069;80;21022;-54
2021/12/27 00:43:32;;;;;;;9.58;4.08;;;;;;;5.91;52.68;101980.03;1770862;80;21018;-54
2021/12/27 00:45:59;;;;;;;6.83;3.30;;;;;;;5.90;52.55;101985.61;1770298;80;21014;-53
2021/12/27 00:48:26;;;;;;;5.22;2.80;;;;;;;5.89;52.14;101972.27;1779773;80;21046;-54
2021/12/27 00:50:52;;;;;;;5.70;3.33;;;;;;;5.88;52.27;101976.97;1761866;80;21155;-53
2021/12/27 00:53:18;;;;;;;4.80;2.83;;;;;;;5.88;52.38;101979.55;1762710;80;21007;-53
2021/12/27 00:55:45;;;;;;;2.67;2.22;;;;;;;5.88;52.11;101978.26;1755576;80;21038;-54
2021/12/27 00:58:13;;;;;;;3.42;2.37;;;;;;;5.89;51.99;101991.64;1767213;80;21038;-53
2021/12/27 01:00:39;;;;;;;3.25;2.17;;;;;;;5.90;51.83;101993.36;1760137;80;21046;-54
2021/12/27 01:03:06;;;;;;;4.75;2.02;;;;;;;5.93;51.78;101983.09;1769485;80;20986;-53
2021/12/27 01:05:32;;;;;;;3.67;2.20;;;;;;;5.93;51.62;101984.38;1761382;80;21019;-53
2021/12/27 01:07:59;;;;;;;7.62;3.40;;;;;;;5.93;51.46;101972.76;1763488;80;21034;-54
2021/12/27 01:13:36;;;;;;;13.25;6.53;;;;;;;5.99;51.16;101970.69;1772435;80;21014;-54
2021/12/27 01:16:10;;;;;;;13.00;6.55;;;;;;;5.99;51.14;101979.31;1774967;80;21050;-54
2021/12/27 01:18:21;;;;;;;12.20;6.08;;;;;;;5.98;51.13;101972.81;1756220;80;21114;-53
2021/12/27 01:20:48;;;;;;;11.57;5.83;;;;;;;5.95;51.11;101962.03;1757052;80;21081;-53
2021/12/27 01:23:15;;;;;;;7.28;4.92;;;;;;;5.95;51.11;101962.03;1750583;80;20990;-53
2021/12/27 01:25:41;;;;;;;8.13;4.40;;;;;;;5.94;51.17;101956.39;1751734;80;20998;-53
2021/12/27 01:28:08;;;;;;;7.58;4.30;;;;;;;5.94;51.23;101951.23;1749244;80;21014;-53
2021/12/27 01:30:38;;;;;;;5.08;3.85;;;;;;;5.91;51.05;101943.45;1752001;81;21131;-53
2021/12/27 01:33:06;;;;;;;8.10;3.83;;;;;;;5.88;51.07;101945.97;1752699;80;21469;-54
2021/12/27 01:35:34;;;;;;;4.58;2.85;;;;;;;5.87;51.06;101941.66;1766942;80;21046;-53
2021/12/27 01:38:01;;;;;;;4.67;3.25;;;;;;;5.84;50.85;101939.02;1757815;80;21023;-53
2021/12/27 01:40:28;;;;;;;5.95;3.47;;;;;;;5.81;50.83;101936.37;1744254;80;21015;-53
2021/12/27 01:43:11;;;;;;;4.65;2.90;;;;;;;5.83;50.94;101938.55;1758135;80;21058;-53
2021/12/27 01:45:45;;;;;;;5.40;2.95;;;;;;;5.84;51.02;101933.84;1760070;80;21065;-53
2021/12/27 01:48:14;;;;;;;3.45;2.58;;;;;;;5.85;50.89;101929.56;1665585;84;21061;-53
2021/12/27 01:50:43;;;;;;;5.55;2.62;;;;;;;5.85;50.82;101933.02;1600413;88;21077;-53
2021/12/27 01:53:10;;;;;;;4.08;2.50;;;;;;;5.87;50.70;101935.20;1673158;85;21515;-53
2021/12/27 01:55:36;;;;;;;5.25;2.50;;;;;;;5.86;50.80;101939.91;1656663;86;21625;-54
2021/12/27 01:58:03;;;;;;;7.00;2.83;;;;;;;5.88;50.68;101946.38;1668694;85;21014;-54
2021/12/27 02:00:30;;;;;;;4.83;2.72;;;;;;;5.87;50.70;101949.41;1673652;85;21046;-53
2021/12/27 02:02:56;;;;;;;6.85;3.75;;;;;;;5.90;51.03;101941.70;1687146;85;21038;-53
2021/12/27 02:05:23;;;;;;;9.03;4.60;;;;;;;5.92;50.89;101938.72;1685534;85;21102;-54
2021/12/27 02:07:49;;;;;;;11.15;6.17;;;;;;;5.94;51.00;101946.06;1671580;85;21069;-53
2021/12/27 02:10:16;;;;;;;12.13;7.05;;;;;;;5.95;51.03;101942.66;1672871;85;21087;-53
2021/12/27 02:12:44;;;;;;;12.70;6.87;;;;;;;5.95;51.12;101949.11;1612263;87;21145;-54
2021/12/27 02:15:10;;;;;;;9.13;5.17;;;;;;;5.94;51.29;101948.65;1656506;85;21099;-54
2021/12/27 02:17:38;;;;;;;11.22;6.05;;;;;;;5.93;51.40;101952.09;1656046;85;21102;-54
2021/12/27 02:20:08;;;;;;;7.58;4.37;;;;;;;5.93;51.43;101946.05;1659990;85;21650;-54
2021/12/27 02:22:36;;;;;;;8.30;4.95;;;;;;;5.93;51.47;101949.92;1635883;86;21946;-53
2021/12/27 02:25:06;;;;;;;7.87;4.92;;;;;;;5.93;51.43;101941.76;1635966;86;21142;-54
2021/12/27 02:27:34;;;;;;;6.70;4.30;;;;;;;5.91;51.45;101947.73;1618522;87;21042;-54
2021/12/27 02:30:02;;;;;;;7.90;4.42;;;;;;;5.90;51.55;101946.86;1622297;87;21106;-54
2021/12/27 02:32:30;;;;;;;6.67;4.03;;;;;;;5.89;51.73;101943.85;1612653;88;21082;-53
2021/12/27 02:34:57;;;;;;;9.58;3.87;;;;;;;5.89;51.85;101934.81;1620167;87;21583;-53
2021/12/27 02:37:24;;;;;;;6.00;3.98;;;;;;;5.93;51.77;101939.17;1610605;87;20999;-53
2021/12/27 02:39:50;;;;;;;4.75;4.00;;;;;;;5.94;51.96;101938.73;1613310;87;21026;-53
2021/12/27 02:42:19;;;;;;;5.67;4.03;;;;;;;5.93;51.85;101946.92;1610103;87;21139;-53
2021/12/27 02:44:46;;;;;;;5.22;3.50;;;;;;;5.89;51.98;101946.84;1606676;87;21026;-53
2021/12/27 02:47:14;;;;;;;5.03;3.65;;;;;;;5.87;51.96;101942.08;1642281;87;21058;-53
2021/12/27 02:49:42;;;;;;;6.75;3.50;;;;;;;5.84;51.94;101940.72;1639733;87;21042;-53
2021/12/27 02:52:09;;;;;;;8.13;3.95;;;;;;;5.82;52.11;101944.55;1632969;87;21106;-53
2021/12/27 02:54:35;;;;;;;4.85;3.52;;;;;;;5.81;52.23;101949.28;1638629;87;21105;-53
2021/12/27 02:57:02;;;;;;;4.87;3.40;;;;;;;5.81;52.30;101949.70;1643811;87;21003;-55
2021/12/27 02:59:29;;;;;;;8.70;3.70;;;;;;;5.80;52.11;101950.11;1634212;86;21153;-54
2021/12/27 03:01:55;;;;;;;4.33;3.35;;;;;;;5.80;51.99;101955.27;1626015;87;21105;-53
2021/12/27 03:04:22;;;;;;;4.25;3.00;;;;;;;5.78;51.62;101958.25;1637645;86;21027;-54
2021/12/27 03:06:48;;;;;;;6.15;4.22;;;;;;;5.80;51.60;101959.15;1637829;86;21059;-53
2021/12/27 03:09:14;;;;;;;7.10;4.60;;;;;;;5.79;51.69;101954.81;1623355;86;21668;-53
2021/12/27 03:11:41;;;;;;;5.37;3.35;;;;;;;5.81;51.65;101949.70;1639754;87;21511;-53
2021/12/27 03:14:08;;;;;;;6.15;3.40;;;;;;;5.82;51.59;101945.84;1637542;87;21026;-53
2021/12/27 03:16:34;;;;;;;8.98;3.20;;;;;;;5.83;51.50;101950.17;1639775;86;21038;-53
2021/12/27 03:19:01;;;;;;;3.90;2.75;;;;;;;5.85;51.46;101953.69;1660299;85;21093;-54
2021/12/27 03:21:28;;;;;;;4.12;2.50;;;;;;;5.84;51.45;101946.77;1665545;85;21074;-53
2021/12/27 03:23:55;;;;;;;6.62;3.30;;;;;;;5.84;51.36;101944.18;1670555;84;21129;-53
2021/12/27 03:26:22;;;;;;;5.33;3.33;;;;;;;5.84;51.29;101941.59;1663370;85;21542;-54
2021/12/27 03:28:51;;;;;;;7.28;3.60;;;;;;;5.84;51.42;101941.59;1669256;85;21532;-53
2021/12/27 03:31:19;;;;;;;5.30;3.20;;;;;;;5.85;51.51;101938.19;1715209;81;21010;-53
2021/12/27 03:33:48;;;;;;;6.50;3.70;;;;;;;5.85;51.41;101933.02;1752166;80;21116;-53
2021/12/27 03:36:14;;;;;;;6.17;3.65;;;;;;;5.89;51.47;101934.81;1752037;81;21002;-54
2021/12/27 03:38:44;;;;;;;4.40;3.17;;;;;;;5.89;51.47;101927.06;1758024;80;21090;-53
2021/12/27 03:41:15;;;;;;;4.03;3.00;;;;;;;5.93;51.42;101922.80;1755612;80;21029;-54
2021/12/27 03:43:42;;;;;;;6.03;3.42;;;;;;;5.92;51.25;101919.34;1700364;83;21071;-54
2021/12/27 03:46:09;;;;;;;5.17;3.08;;;;;;;5.92;51.10;101921.05;1702108;82;21047;-54
2021/12/27 03:48:35;;;;;;;7.67;3.10;;;;;;;5.90;51.40;101913.28;1684068;83;21079;-54
2021/12/27 03:51:02;;;;;;;4.08;3.15;;;;;;;5.90;51.14;101919.73;1684071;83;21015;-53
2021/12/27 03:53:29;;;;;;;3.60;2.98;;;;;;;5.92;51.24;101917.17;1678201;83;21155;-53
2021/12/27 03:55:56;;;;;;;5.10;3.35;;;;;;;5.90;51.17;101914.98;1687397;82;21032;-54
2021/12/27 03:58:27;;;;;;;6.40;3.05;;;;;;;5.90;51.04;101905.53;1688809;83;21605;-54
2021/12/27 04:03:21;;;;;;;5.20;3.40;;;;;;;5.92;51.13;101914.17;1693907;83;21059;-54
2021/12/27 04:05:48;;;;;;;6.47;3.50;;;;;;;5.92;51.15;101918.05;1699234;83;21063;-53
2021/12/27 04:08:18;;;;;;;7.50;2.80;;;;;;;5.94;51.28;101918.94;1697106;83;21056;-53
2021/12/27 04:10:45;;;;;;;5.22;3.22;;;;;;;5.94;51.37;101925.40;1711242;82;21032;-53
2021/12/27 04:13:12;;;;;;;9.45;4.87;;;;;;;5.96;51.55;101923.70;1694221;83;21079;-54
2021/12/27 04:15:39;;;;;;;8.13;4.80;;;;;;;5.96;51.39;101923.70;1694366;83;21075;-54
2021/12/27 04:18:09;;;;;;;7.92;4.50;;;;;;;5.94;51.19;101922.81;1700972;83;21108;-53
2021/12/27 04:20:38;;;;;;;4.85;3.37;;;;;;;5.91;51.12;101921.91;1694500;83;21127;-54
2021/12/27 04:23:05;;;;;;;5.87;4.08;;;;;;;5.92;51.40;101928.80;1682739;83;21535;-53
2021/12/27 04:25:31;;;;;;;5.42;3.70;;;;;;;5.92;51.40;101929.67;1693326;83;21071;-54
2021/12/27 04:27:57;;;;;;;7.95;4.05;;;;;;;5.93;51.53;101928.84;1679278;83;21032;-53
2021/12/27 04:30:24;;;;;;;6.67;4.28;;;;;;;5.92;51.51;101935.25;1699902;83;21591;-53
2021/12/27 04:32:50;;;;;;;5.67;4.12;;;;;;;5.90;51.53;101942.98;1678110;83;21492;-54
2021/12/27 04:35:19;;;;;;;6.70;4.65;;;;;;;5.89;51.46;101941.27;1698953;83;21019;-54
2021/12/27 04:37:47;;;;;;;10.75;6.58;;;;;;;5.88;51.70;101947.27;1691978;83;21056;-55
2021/12/27 04:40:14;;;;;;;9.70;5.80;;;;;;;5.88;51.97;101946.38;1693042;81;21039;-54
2021/12/27 04:42:45;;;;;;;8.25;5.50;;;;;;;5.89;52.03;101946.43;1756581;80;21057;-54
2021/12/27 04:45:15;;;;;;;7.37;4.45;;;;;;;5.92;51.93;101955.50;1753994;80;20994;-54
2021/12/27 04:47:42;;;;;;;8.10;5.00;;;;;;;5.93;51.92;101955.97;1748020;80;21035;-54
2021/12/27 04:50:09;;;;;;;8.08;5.15;;;;;;;5.93;51.89;101959.84;1745610;80;21542;-53
2021/12/27 04:52:36;;;;;;;12.63;6.03;;;;;;;5.95;51.96;101965.91;1767489;80;21089;-53
2021/12/27 04:55:04;;;;;;;10.50;4.75;;;;;;;5.95;51.98;101971.07;1761061;80;21039;-54
2021/12/27 04:57:30;;;;;;;10.63;5.92;;;;;;;5.95;52.16;101983.98;1751863;81;21046;-53
2021/12/27 04:59:58;;;;;;;6.05;4.83;;;;;;;5.95;52.20;101986.57;1752407;80;21533;-54
2021/12/27 05:02:25;;;;;;;7.90;5.50;;;;;;;5.95;52.24;101985.28;1760029;80;21013;-54
2021/12/27 05:18:22;;;;;;;10.72;6.97;;;;;;;5.91;53.70;102009.32;1762078;80;21637;-54
2021/12/27 05:20:48;;;;;;;12.05;8.60;;;;;;;5.92;54.05;102020.09;1753262;80;21034;-54
2021/12/27 05:23:15;;;;;;;18.52;13.85;;;;;;;5.90;54.29;102025.65;1759581;80;21105;-54
2021/12/27 05:25:42;;;;;;;29.48;20.45;;;;;;;5.88;54.50;102020.88;1765844;80;21066;-53
2021/12/27 05:28:09;;;;;;;22.45;15.83;;;;;;;5.89;54.66;102021.34;1760987;80;21533;-54
2021/12/27 05:30:38;;;;;;;11.12;9.68;;;;;;;5.92;54.94;102021.79;1754437;80;21070;-53
2021/12/27 05:33:04;;;;;;;9.03;6.67;;;;;;;5.91;55.08;102026.53;1764887;80;20998;-54
2021/12/27 05:35:31;;;;;;;10.00;5.35;;;;;;;5.90;55.25;102021.77;1744911;81;21036;-54
2021/12/27 05:37:57;;;;;;;8.68;5.30;;;;;;;5.91;55.33;102013.20;1770586;80;21529;-54
2021/12/27 05:40:25;;;;;;;9.50;4.78;;;;;;;5.91;55.42;102017.08;1757339;80;21522;-54
2021/12/27 05:42:53;;;;;;;8.08;4.58;;;;;;;5.92;55.57;102017.50;1757158;80;21006;-54
2021/12/27 05:45:19;;;;;;;6.55;4.37;;;;;;;5.90;55.70;102010.15;1739590;80;21101;-54
2021/12/27 05:47:46;;;;;;;6.72;4.15;;;;;;;5.88;55.82;102015.71;1754379;80;21022;-54
2021/12/27 05:50:15;;;;;;;7.55;4.25;;;;;;;5.87;55.92;102021.73;1761054;80;21084;-54
2021/12/27 05:52:42;;;;;;;10.23;3.95;;;;;;;5.84;55.97;102024.25;1758825;80;21507;-54
2021/12/27 05:55:09;;;;;;;8.98;4.00;;;;;;;5.85;56.09;102038.92;1779669;80;21510;-54
2021/12/27 05:57:37;;;;;;;9.15;4.00;;;;;;;5.86;56.18;102036.77;1771437;80;21010;-54
2021/12/27 06:00:09;;;;;;;10.00;3.65;;;;;;;5.88;56.05;102038.96;1763172;80;21055;-54
2021/12/27 06:02:43;;;;;;;6.45;3.12;;;;;;;5.90;55.99;102042.44;1753502;80;21515;-55
2021/12/27 06:05:11;;;;;;;11.05;5.40;;;;;;;5.90;55.87;102038.98;1759107;80;21538;-54
2021/12/27 06:07:38;;;;;;;7.35;4.55;;;;;;;5.88;55.88;102040.25;1769131;80;21506;-54
2021/12/27 06:10:07;;;;;;;7.72;3.85;;;;;;;5.86;56.06;102052.27;1753093;80;21549;-54
2021/12/27 06:12:34;;;;;;;6.90;3.40;;;;;;;5.85;56.04;102057.00;1767162;80;21061;-54
2021/12/27 06:15:00;;;;;;;8.48;4.35;;;;;;;5.87;56.18;102057.02;1757765;80;21007;-54
2021/12/27 06:17:27;;;;;;;9.78;4.72;;;;;;;5.89;56.34;102065.67;1746858;81;21542;-55
2021/12/27 06:19:53;;;;;;;7.95;4.37;;;;;;;5.93;56.37;102068.76;1759786;80;21562;-54
2021/12/27 06:22:20;;;;;;;12.03;4.72;;;;;;;5.90;56.33;102060.52;1750577;81;21051;-54
2021/12/27 06:24:46;;;;;;;11.53;4.67;;;;;;;5.90;56.39;102055.36;1750865;80;20986;-54
2021/12/27 06:27:12;;;;;;;8.58;4.75;;;;;;;5.90;56.52;102065.69;1763307;80;21065;-54
2021/12/27 06:29:39;;;;;;;8.20;4.25;;;;;;;5.92;56.67;102069.17;1755791;80;21111;-55
2021/12/27 06:32:06;;;;;;;6.15;3.60;;;;;;;5.90;56.48;102070.86;1752115;81;21498;-55
2021/12/27 06:34:33;;;;;;;8.10;4.40;;;;;;;5.87;56.45;102060.48;1751065;80;21128;-54
2021/12/27 06:36:59;;;;;;;10.13;4.60;;;;;;;5.87;56.68;102054.03;1753661;81;20988;-54
2021/12/27 06:39:25;;;;;;;9.80;4.28;;;;;;;5.87;56.68;102056.61;1756182;80;21018;-54
2021/12/27 06:41:52;;;;;;;9.75;3.60;;;;;;;5.88;56.75;102062.21;1766792;80;21503;-54
2021/12/27 06:44:18;;;;;;;10.45;4.17;;;;;;;5.87;56.63;102068.23;1741699;80;21547;-55
2021/12/27 06:46:45;;;;;;;6.72;3.27;;;;;;;5.87;56.69;102079.86;1779667;80;21034;-54
2021/12/27 06:49:11;;;;;;;11.40;4.08;;;;;;;5.89;56.81;102081.17;1763023;80;21015;-54
2021/12/27 06:51:38;;;;;;;8.03;3.77;;;;;;;5.92;56.80;102075.62;1754377;80;21022;-54
2021/12/27 06:54:04;;;;;;;7.15;3.65;;;;;;;5.93;56.89;102070.92;1751218;80;21031;-54
2021/12/27 07:02:57;;;;;;;7.50;3.25;;;;;;;6.00;56.68;102080.51;1766594;80;21088;-54
2021/12/27 07:05:24;;;;;;;6.92;3.40;;;;;;;6.02;56.73;102074.09;1749559;81;21609;-54
2021/12/27 07:07:50;;;;;;;5.08;2.37;;;;;;;6.03;56.68;102070.24;1762027;80;21073;-55
2021/12/27 07:10:19;;;;;;;6.65;2.75;;;;;;;6.08;56.53;102058.25;1756067;80;21023;-54
2021/12/27 07:12:46;;;;;;;7.22;2.95;;;;;;;6.10;56.42;102057.86;1773796;80;21042;-54
2021/12/27 07:15:12;;;;;;;7.37;3.22;;;;;;;6.13;56.39;102052.76;1755551;80;21046;-54
2021/12/27 07:17:39;;;;;;;6.05;2.80;;;;;;;6.15;56.25;102054.95;1766517;80;20990;-54
2021/12/27 07:20:07;;;;;;;6.87;3.10;;;;;;;6.11;56.23;102060.91;1776736;80;21049;-54
2021/12/27 07:22:34;;;;;;;6.85;2.98;;;;;;;6.09;56.39;102052.67;1750569;80;21039;-54
2021/12/27 07:25:01;;;;;;;6.08;3.20;;;;;;;6.10;56.42;102058.30;1752850;80;21007;-54
2021/12/27 07:27:27;;;;;;;5.92;3.40;;;;;;;6.08;56.48;102058.25;1755557;80;21049;-54
2021/12/27 07:29:54;;;;;;;15.78;8.30;;;;;;;6.08;56.49;102054.83;1732525;81;21012;-54
2021/12/27 07:32:20;;;;;;;14.58;8.68;;;;;;;6.07;56.43;102051.36;1753301;80;20990;-54
2021/12/27 07:34:48;;;;;;;8.70;5.95;;;;;;;6.09;56.46;102046.22;1752665;80;21050;-57
2021/12/27 07:37:16;;;;;;;7.33;4.83;;;;;;;6.07;56.41;102048.78;1757612;80;21094;-54
2021/12/27 07:39:44;;;;;;;12.05;4.45;;;;;;;6.06;56.50;102059.94;1760588;80;20986;-54
2021/12/27 07:42:11;;;;;;;8.68;3.90;;;;;;;6.05;56.42;102049.59;1770759;80;21513;-54
2021/12/27 07:44:37;;;;;;;6.15;3.00;;;;;;;6.06;56.53;102057.80;1769211;80;21156;-55
2021/12/27 07:47:05;;;;;;;6.85;3.47;;;;;;;6.06;56.64;102057.36;1759509;80;21111;-54
2021/12/27 07:49:31;;;;;;;5.80;3.37;;;;;;;6.07;56.74;102053.95;1766593;80;21660;-55
2021/12/27 07:51:57;;;;;;;5.75;3.02;;;;;;;6.09;56.75;102048.80;1754378;80;21011;-54
2021/12/27 07:54:24;;;;;;;8.20;3.72;;;;;;;6.08;56.76;102055.67;1769369;80;21034;-55
2021/12/27 07:56:50;;;;;;;9.03;4.08;;;;;;;6.08;56.72;102053.09;1755833;80;21054;-55
2021/12/27 07:59:17;;;;;;;11.43;4.60;;;;;;;6.07;56.60;102061.70;1775126;80;21462;-55
2021/12/27 08:01:44;;;;;;;11.33;4.83;;;;;;;6.06;56.72;102059.94;1756147;80;21518;-55
2021/12/27 08:04:11;;;;;;;9.98;3.92;;;;;;;6.07;56.74;102064.70;1751701;80;21517;-56
2021/12/27 08:06:37;;;;;;;10.43;5.37;;;;;;;6.07;56.63;102074.63;1771020;80;21022;-54
2021/12/27 08:09:05;;;;;;;11.33;5.00;;;;;;;6.08;56.61;102073.76;1760687;80;21529;-54
2021/12/27 08:11:32;;;;;;;12.43;4.95;;;;;;;6.09;56.66;102066.47;1760571;80;20995;-54
2021/12/27 08:13:59;;;;;;;8.85;4.22;;;;;;;6.11;56.60;102062.20;1760248;80;21030;-54
2021/12/27 08:16:25;;;;;;;9.25;4.95;;;;;;;6.13;56.56;102065.67;1756480;80;21184;-54
2021/12/27 08:18:52;;;;;;;9.08;5.22;;;;;;;6.13;56.39;102066.09;1740459;81;21534;-56
2021/12/27 08:21:20;;;;;;;7.53;4.40;;;;;;;6.11;56.20;102069.95;1755088;80;21490;-53
2021/12/27 08:23:47;;;;;;;10.20;5.17;;;;;;;6.11;56.15;102066.08;1749986;81;20988;-54
2021/12/27 08:26:13;;;;;;;7.53;4.70;;;;;;;6.10;56.14;102069.48;1759086;80;21451;-54
2021/12/27 08:28:40;;;;;;;6.60;4.70;;;;;;;6.10;56.06;102057.86;1752201;80;21462;-54
2021/12/27 08:31:07;;;;;;;8.05;5.17;;;;;;;6.10;56.04;102044.94;1760449;80;21506;-54
2021/12/27 08:33:34;;;;;;;6.97;4.75;;;;;;;6.09;55.93;102041.92;1754094;80;21019;-55
2021/12/27 08:36:01;;;;;;;11.18;5.10;;;;;;;6.08;55.98;102053.09;1759881;80;21513;-54
2021/12/27 08:38:27;;;;;;;9.03;4.85;;;;;;;6.07;56.13;102059.11;1759186;80;21498;-54
2021/12/27 08:40:54;;;;;;;11.25;4.83;;;;;;;6.10;56.12;102059.16;1764789;80;22020;-55
2021/12/27 08:43:21;;;;;;;9.25;4.75;;;;;;;6.12;56.16;102065.22;1766311;80;21002;-54
2021/12/27 08:45:47;;;;;;;9.75;4.80;;;;;;;6.13;56.12;102064.39;1765638;80;21082;-54
2021/12/27 08:48:14;;;;;;;11.10;4.65;;;;;;;6.13;56.14;102055.76;1748106;80;21019;-54
2021/12/27 08:50:42;;;;;;;10.25;4.65;;;;;;;6.10;56.03;102059.16;1751848;80;21031;-54
2021/12/27 08:53:09;;;;;;;9.75;4.28;;;;;;;6.12;56.19;102052.30;1762424;80;21502;-54
2021/12/27 08:55:37;;;;;;;9.00;4.25;;;;;;;6.11;56.30;102046.69;1759192;80;21019;-54
2021/12/27 08:58:04;;;;;;;7.20;3.90;;;;;;;6.10;56.32;102041.06;1763205;80;21006;-54
2021/12/27 09:00:30;;;;;;;9.58;4.40;;;;;;;6.13;56.46;102030.80;1755158;80;21043;-54
2021/12/27 09:02:57;;;;;;;9.18;4.40;;;;;;;6.14;56.37;102024.77;1768941;80;21058;-54
2021/12/27 09:05:24;;;;;;;6.25;3.72;;;;;;;6.10;56.51;102019.09;1764700;80;21007;-54
2021/12/27 09:07:50;;;;;;;6.78;3.87;;;;;;;6.10;56.61;102015.22;1761711;80;21063;-55
2021/12/27 09:10:17;;;;;;;8.55;4.35;;;;;;;6.09;56.57;102016.08;1757350;80;21018;-54
2021/12/27 09:12:45;;;;;;;9.68;4.42;;;;;;;6.04;56.55;102016.41;1765930;80;21011;-54
2021/12/27 09:15:14;;;;;;;6.12;3.70;;;;;;;6.04;56.75;102013.83;1765371;80;21018;-54
2021/12/27 09:17:41;;;;;;;8.63;4.35;;;;;;;6.06;56.78;102012.59;1759497;80;21007;-54
2021/12/27 09:20:09;;;;;;;7.30;4.45;;;;;;;6.07;56.94;102003.98;1747805;81;21074;-54
2021/12/27 09:22:36;;;;;;;12.58;5.22;;;;;;;6.08;56.93;101998.83;1760239;80;21542;-54
2021/12/27 09:25:04;;;;;;;7.45;4.28;;;;;;;6.10;57.01;101995.00;1755682;80;21526;-54
2021/12/27 09:27:31;;;;;;;10.50;3.77;;;;;;;6.10;57.00;101977.75;1748589;81;21001;-54
2021/12/27 09:29:57;;;;;;;6.83;3.70;;;;;;;6.09;56.88;101965.69;1754000;80;21003;-55
2021/12/27 09:40:14;;;;;;;4.67;3.35;;;;;;;6.12;56.89;101969.59;1759993;80;21063;-54
2021/12/27 09:42:42;;;;;;;7.47;2.77;;;;;;;6.08;57.05;101965.23;1758961;80;21094;-55
2021/12/27 09:45:09;;;;;;;8.13;3.37;;;;;;;6.09;57.21;101963.11;1774545;80;21030;-54
2021/12/27 09:47:37;;;;;;;10.75;3.27;;;;;;;6.10;57.31;101954.50;1757691;80;21023;-55
2021/12/27 09:50:07;;;;;;;6.60;3.40;;;;;;;6.11;57.40;101964.00;1762398;80;21042;-55
2021/12/27 09:52:33;;;;;;;8.88;3.42;;;;;;;6.11;57.38;101958.84;1760158;80;21089;-54
2021/12/27 09:59:15;;;;;;;5.58;3.02;;;;;;;6.16;57.35;101940.38;1763445;80;21113;-53
2021/12/27 10:01:41;;;;;;;6.95;3.37;;;;;;;6.19;57.48;101943.44;1757168;80;21031;-54
2021/12/27 10:04:07;;;;;;;8.33;3.00;;;;;;;6.18;57.49;101946.88;1770822;80;21009;-53
2021/12/27 10:06:34;;;;;;;7.83;3.22;;;;;;;6.16;57.60;101942.11;1718293;81;20983;-53
2021/12/27 10:09:04;;;;;;;8.53;3.33;;;;;;;6.16;57.67;101933.91;1745168;80;20995;-53
2021/12/27 10:11:38;;;;;;;5.78;3.33;;;;;;;6.16;57.74;101935.20;1756792;80;21124;-53
2021/12/27 10:14:14;;;;;;;7.87;3.62;;;;;;;6.18;57.79;101919.75;1765915;80;21010;-54
2021/12/27 10:17:10;;;;;;;6.35;3.10;;;;;;;6.19;57.76;101913.30;1752003;80;21545;-53
2021/12/27 10:19:37;;;;;;;5.67;2.87;;;;;;;6.21;57.72;101907.73;1757124;80;21077;-53
2021/12/27 10:22:11;;;;;;;8.25;3.80;;;;;;;6.24;57.62;101906.49;1770240;80;21498;-53
2021/12/27 10:24:38;;;;;;;6.30;3.30;;;;;;;6.24;57.64;101912.95;1750863;80;21042;-53
2021/12/27 10:27:06;;;;;;;5.17;3.60;;;;;;;6.22;57.63;101914.62;1752774;80;21063;-54
2021/12/27 10:29:37;;;;;;;6.10;3.08;;;;;;;6.22;57.73;101919.78;1770060;80;21055;-53
2021/12/27 10:32:16;;;;;;;6.87;3.20;;;;;;;6.23;57.82;101909.91;1703409;83;21183;-54
2021/12/27 10:34:50;;;;;;;5.50;2.90;;;;;;;6.14;57.99;101898.14;1666486;85;21101;-53
2021/12/27 10:37:26;;;;;;;6.37;2.75;;;;;;;6.12;58.01;101897.69;1669128;85;21067;-54
2021/12/27 10:39:58;;;;;;;7.60;2.92;;;;;;;6.14;58.09;101895.55;1668363;85;21070;-53
2021/12/27 10:42:31;;;;;;;6.05;3.22;;;;;;;6.16;58.06;101888.69;1675296;85;21912;-53
2021/12/27 10:45:00;;;;;;;;;;;;;;;6.18;58.10;101893.91;1664881;85;21110;-53
2021/12/27 10:47:37;;;;;;;7.45;4.00;;;;;;;6.18;58.14;101899.91;1672821;85;20179;-53
2021/12/27 10:50:14;;;;;;;9.80;4.85;;;;;;;6.21;58.13;101899.98;1673610;84;21117;-53
2021/12/27 10:52:54;;;;;;;11.63;5.35;;;;;;;6.24;58.34;101906.49;1665364;85;21568;-53
2021/12/27 10:55:29;;;;;;;6.33;4.25;;;;;;;6.26;58.27;101906.09;1674690;85;21062;-53
2021/12/27 10:58:23;;;;;;;7.70;3.90;;;;;;;6.28;58.00;101901.81;1673207;85;21585;-53
2021/12/27 11:01:01;;;;;;;5.00;2.98;;;;;;;6.27;57.92;101909.10;1672710;85;21074;-53
2021/12/27 11:03:36;;;;;;;5.55;3.30;;;;;;;6.29;57.97;101893.61;1658594;86;21113;-53
2021/12/27 11:06:08;;;;;;;7.15;3.20;;;;;;;6.30;58.00;101892.36;1658742;85;21042;-53
2021/12/27 11:08:38;;;;;;;5.28;2.87;;;;;;;6.31;58.25;101873.41;1663165;85;21093;-54
2021/12/27 11:11:05;;;;;;;6.55;3.02;;;;;;;6.33;58.24;101882.05;1661735;84;21057;-53
2021/12/27 11:13:32;;;;;;;3.55;2.77;;;;;;;6.33;58.21;101880.75;1661855;85;21619;-53
2021/12/27 11:15:59;;;;;;;7.03;2.42;;;;;;;6.33;58.10;101879.45;1661867;85;21625;-54
2021/12/27 11:18:25;;;;;;;7.25;3.30;;;;;;;6.32;58.08;101882.91;1660530;85;21537;-54
2021/12/27 11:20:56;;;;;;;7.72;3.45;;;;;;;6.36;58.03;101875.64;1665515;84;21545;-53
2021/12/27 11:23:23;;;;;;;7.35;3.65;;;;;;;6.37;58.10;101879.94;1665326;85;21154;-54
2021/12/27 11:26:01;;;;;;;8.03;3.47;;;;;;;6.35;58.14;101882.94;1664548;85;21562;-53
2021/12/27 11:28:42;;;;;;;7.50;3.40;;;;;;;6.37;58.14;101879.94;1674478;82;21069;-54
2021/12/27 11:31:27;;;;;;;6.50;3.15;;;;;;;6.35;58.17;101871.72;1724700;82;21410;-54
2021/12/27 11:34:03;;;;;;;7.33;3.08;;;;;;;6.33;58.18;101879.45;1724121;82;21062;-54
2021/12/27 11:36:38;;;;;;;8.63;3.90;;;;;;;6.33;58.23;101884.63;1723933;82;21553;-53
2021/12/27 11:39:19;;;;;;;6.92;3.47;;;;;;;6.31;58.37;101891.50;1711507;82;21006;-54
2021/12/27 11:41:59;;;;;;;8.15;3.58;;;;;;;6.23;58.75;101895.70;1760470;80;21030;-53
2021/12/27 11:44:46;;;;;;;11.30;4.15;;;;;;;6.23;58.87;101882.77;1716579;83;21607;-54
2021/12/27 11:47:29;;;;;;;6.53;3.22;;;;;;;6.23;58.91;101884.06;1682864;85;21088;-53
2021/12/27 11:50:01;;;;;;;10.28;3.92;;;;;;;6.22;59.09;101874.55;1667138;85;21108;-54
2021/12/27 11:52:32;;;;;;;10.55;4.40;;;;;;;6.24;59.13;101869.02;1675271;85;21579;-54
2021/12/27 11:55:12;;;;;;;6.58;3.77;;;;;;;6.24;59.12;101871.60;1675481;85;21067;-54
2021/12/27 11:57:52;;;;;;;14.33;4.50;;;;;;;6.25;59.22;101866.86;1659063;84;21087;-53
2021/12/27 12:00:27;;;;;;;10.48;4.35;;;;;;;6.28;59.25;101873.38;1658611;85;21545;-53
2021/12/27 12:03:05;;;;;;;12.47;4.47;;;;;;;6.31;59.44;101880.28;1672956;85;21090;-53
2021/12/27 12:05:47;;;;;;;11.60;4.37;;;;;;;6.34;59.41;101876.05;1674464;85;21463;-53
2021/12/27 12:08:22;;;;;;;9.78;4.70;;;;;;;6.35;59.43;101875.17;1674025;85;21080;-54
2021/12/27 12:10:51;;;;;;;14.55;5.15;;;;;;;6.35;59.46;101868.72;1673141;85;21056;-53
2021/12/27 12:13:44;;;;;;;9.88;5.25;;;;;;;6.36;59.42;101867.88;1675805;85;21560;-53
2021/12/27 12:16:14;;;;;;;10.60;4.92;;;;;;;6.36;59.48;101876.93;1674795;85;21056;-53
2021/12/27 12:18:59;;;;;;;9.65;5.05;;;;;;;6.39;59.53;101866.61;1673785;85;21024;-54
2021/12/27 12:21:48;;;;;;;12.80;5.17;;;;;;;6.41;59.55;101873.97;1665909;85;21011;-53
2021/12/27 12:24:22;;;;;;;13.48;5.15;;;;;;;6.42;59.61;101861.50;1665587;85;21057;-54
2021/12/27 12:27:00;;;;;;;10.53;5.25;;;;;;;6.41;59.60;101855.87;1672606;84;21598;-54
2021/12/27 12:29:38;;;;;;;10.50;5.42;;;;;;;6.42;59.62;101855.03;1681363;84;22508;-54
2021/12/27 12:32:08;;;;;;;13.55;5.53;;;;;;;6.44;59.71;101855.92;1686350;84;21236;-54
2021/12/27 12:34:36;;;;;;;12.47;5.90;;;;;;;6.46;59.72;101852.92;1694920;84;21133;-54
2021/12/27 12:37:06;;;;;;;9.83;5.53;;;;;;;6.48;59.65;101848.64;1668605;84;21444;-55